EJA1596 PHNL-KLAX
Flight info
| Callsign | EJA1596 |
|---|---|
| Flight time | 4h 51m |
| Altitude | 33000 |
| Route | MKK5 CODDY EBBER R577 ERROT/N0478F350 R577 ETNIC/N0472F370 R577 ELKEY RYDRR2 |
| Aircraft | CL60/M-SADE3FGHIJ3J4J7P2RWXY/HB1D1 |
Departure
| Time | 2026-05-07 19:46 |
|---|---|
| Airport | Daniel K. Inouye International Airport (PHNL) |
Arrival
| Time | 2026-05-08 00:38 |
|---|---|
| Airport | Los Angeles International Airport (KLAX) |
| Time | Latitude | Longitude | Altitude | Speed | Heading |
|---|---|---|---|---|---|
| 2026-05-07 19:15 | 21.31416 | -157.92265 | 22 ft | 0 kts | 142° |
| 2026-05-07 19:44 | 21.31421 | -157.92230 | 22 ft | 9 kts | 35° |
| 2026-05-07 19:44 | 21.31490 | -157.92259 | 22 ft | 12 kts | 4° |
| 2026-05-07 19:44 | 21.31559 | -157.92184 | 22 ft | 16 kts | 52° |
| 2026-05-07 19:45 | 21.31648 | -157.92162 | 22 ft | 15 kts | 326° |
| 2026-05-07 19:45 | 21.31747 | -157.92241 | 22 ft | 19 kts | 322° |
| 2026-05-07 19:45 | 21.31839 | -157.92313 | 22 ft | 9 kts | 19° |
| 2026-05-07 19:45 | 21.31952 | -157.92163 | 20 ft | 62 kts | 54° |
| 2026-05-07 19:46 | 21.32379 | -157.91562 | 19 ft | 135 kts | 53° |
| 2026-05-07 19:46 | 21.33032 | -157.90625 | 259 ft | 168 kts | 53° |
| 2026-05-07 19:46 | 21.33684 | -157.89618 | 911 ft | 165 kts | 57° |
| 2026-05-07 19:46 | 21.34302 | -157.88522 | 1551 ft | 174 kts | 61° |
| 2026-05-07 19:47 | 21.34894 | -157.87399 | 2264 ft | 180 kts | 59° |
| 2026-05-07 19:47 | 21.35451 | -157.86156 | 2873 ft | 186 kts | 69° |
| 2026-05-07 19:47 | 21.35582 | -157.84779 | 3465 ft | 198 kts | 104° |
| 2026-05-07 19:47 | 21.35133 | -157.83313 | 4074 ft | 211 kts | 108° |
| 2026-05-07 19:48 | 21.34636 | -157.81812 | 4831 ft | 217 kts | 108° |
| 2026-05-07 19:48 | 21.34136 | -157.80281 | 5609 ft | 221 kts | 108° |
| 2026-05-07 19:48 | 21.33628 | -157.78716 | 6407 ft | 224 kts | 108° |
| 2026-05-07 19:48 | 21.33110 | -157.77119 | 7179 ft | 228 kts | 108° |
| 2026-05-07 19:49 | 21.32588 | -157.75505 | 7938 ft | 231 kts | 109° |
| 2026-05-07 19:49 | 21.32060 | -157.73868 | 8661 ft | 235 kts | 109° |
| 2026-05-07 19:49 | 21.31520 | -157.72191 | 9231 ft | 247 kts | 109° |
| 2026-05-07 19:49 | 21.30914 | -157.70305 | 9348 ft | 279 kts | 109° |
| 2026-05-07 19:50 | 21.30262 | -157.68272 | 9841 ft | 294 kts | 109° |
| 2026-05-07 19:50 | 21.29594 | -157.66187 | 10566 ft | 299 kts | 109° |
| 2026-05-07 19:50 | 21.28916 | -157.64069 | 11291 ft | 303 kts | 109° |
| 2026-05-07 19:50 | 21.28225 | -157.61911 | 12002 ft | 307 kts | 109° |
| 2026-05-07 19:51 | 21.27537 | -157.59763 | 12741 ft | 311 kts | 109° |
| 2026-05-07 19:51 | 21.26831 | -157.57556 | 13434 ft | 314 kts | 109° |
| 2026-05-07 19:51 | 21.26119 | -157.55331 | 14118 ft | 317 kts | 109° |
| 2026-05-07 19:51 | 21.25157 | -157.52325 | 15012 ft | 321 kts | 109° |
| 2026-05-07 19:52 | 21.24667 | -157.50795 | 15460 ft | 322 kts | 109° |
| 2026-05-07 19:52 | 21.23940 | -157.48523 | 16084 ft | 325 kts | 109° |
| 2026-05-07 19:52 | 21.23200 | -157.46210 | 16689 ft | 327 kts | 109° |
| 2026-05-07 19:52 | 21.22465 | -157.43918 | 17287 ft | 329 kts | 109° |
| 2026-05-07 19:53 | 21.21706 | -157.41548 | 17880 ft | 332 kts | 109° |
| 2026-05-07 19:53 | 21.20944 | -157.39171 | 18448 ft | 335 kts | 109° |
| 2026-05-07 19:53 | 21.20189 | -157.36818 | 18959 ft | 338 kts | 109° |
| 2026-05-07 19:53 | 21.19413 | -157.34398 | 19484 ft | 341 kts | 109° |
| 2026-05-07 19:54 | 21.18646 | -157.32008 | 20001 ft | 344 kts | 109° |
| 2026-05-07 19:54 | 21.17863 | -157.29568 | 20504 ft | 347 kts | 109° |
| 2026-05-07 19:54 | 21.17073 | -157.27109 | 20991 ft | 350 kts | 109° |
| 2026-05-07 19:54 | 21.16269 | -157.24608 | 21468 ft | 353 kts | 109° |
| 2026-05-07 19:55 | 21.15469 | -157.22119 | 21709 ft | 364 kts | 109° |
| 2026-05-07 19:55 | 21.14656 | -157.19476 | 21710 ft | 381 kts | 104° |
| 2026-05-07 19:55 | 21.14378 | -157.16591 | 21726 ft | 397 kts | 86° |
| 2026-05-07 19:55 | 21.14999 | -157.13702 | 21754 ft | 410 kts | 68° |
| 2026-05-07 19:56 | 21.16127 | -157.10834 | 21853 ft | 422 kts | 67° |
| 2026-05-07 19:56 | 21.17286 | -157.07909 | 22200 ft | 426 kts | 67° |
| 2026-05-07 19:56 | 21.18443 | -157.04984 | 22656 ft | 427 kts | 67° |
| 2026-05-07 19:56 | 21.19611 | -157.02029 | 23065 ft | 430 kts | 67° |
| 2026-05-07 19:57 | 21.20782 | -156.99068 | 23434 ft | 433 kts | 67° |
| 2026-05-07 19:57 | 21.21945 | -156.96127 | 23827 ft | 435 kts | 67° |
| 2026-05-07 19:57 | 21.23128 | -156.93132 | 24210 ft | 438 kts | 67° |
| 2026-05-07 19:57 | 21.24320 | -156.90115 | 24573 ft | 440 kts | 67° |
| 2026-05-07 19:58 | 21.25524 | -156.87068 | 24924 ft | 443 kts | 67° |
| 2026-05-07 19:58 | 21.26713 | -156.84056 | 25248 ft | 446 kts | 67° |
| 2026-05-07 19:58 | 21.27932 | -156.80971 | 25580 ft | 449 kts | 67° |
| 2026-05-07 19:58 | 21.29157 | -156.77864 | 25919 ft | 451 kts | 67° |
| 2026-05-07 19:59 | 21.30369 | -156.74791 | 26240 ft | 453 kts | 67° |
| 2026-05-07 19:59 | 21.31608 | -156.71646 | 26528 ft | 456 kts | 67° |
| 2026-05-07 19:59 | 21.32808 | -156.68486 | 26836 ft | 458 kts | 71° |
| 2026-05-07 19:59 | 21.33492 | -156.65157 | 27127 ft | 459 kts | 84° |
| 2026-05-07 20:00 | 21.33717 | -156.61758 | 27391 ft | 462 kts | 86° |
| 2026-05-07 20:00 | 21.33921 | -156.58299 | 27670 ft | 464 kts | 86° |
| 2026-05-07 20:00 | 21.34127 | -156.54858 | 27943 ft | 466 kts | 86° |
| 2026-05-07 20:00 | 21.34335 | -156.51395 | 28208 ft | 468 kts | 86° |
| 2026-05-07 20:01 | 21.34547 | -156.47879 | 28451 ft | 470 kts | 86° |
| 2026-05-07 20:01 | 21.34757 | -156.44391 | 28711 ft | 472 kts | 86° |
| 2026-05-07 20:01 | 21.34970 | -156.40852 | 28952 ft | 474 kts | 86° |
| 2026-05-07 20:01 | 21.35182 | -156.37343 | 29170 ft | 476 kts | 86° |
| 2026-05-07 20:02 | 21.35394 | -156.33807 | 29385 ft | 478 kts | 87° |
| 2026-05-07 20:02 | 21.35611 | -156.30208 | 29577 ft | 480 kts | 87° |
| 2026-05-07 20:02 | 21.35826 | -156.26631 | 29787 ft | 481 kts | 87° |
| 2026-05-07 20:02 | 21.36040 | -156.23065 | 29988 ft | 482 kts | 87° |
| 2026-05-07 20:03 | 21.36255 | -156.19478 | 30192 ft | 483 kts | 87° |
| 2026-05-07 20:03 | 21.36472 | -156.15842 | 30346 ft | 485 kts | 87° |
| 2026-05-07 20:03 | 21.36688 | -156.12225 | 30504 ft | 486 kts | 86° |
| 2026-05-07 20:03 | 21.36904 | -156.08594 | 30642 ft | 488 kts | 86° |
| 2026-05-07 20:04 | 21.37122 | -156.04907 | 30788 ft | 489 kts | 86° |
| 2026-05-07 20:04 | 21.37337 | -156.01265 | 30921 ft | 491 kts | 86° |
| 2026-05-07 20:04 | 21.37553 | -155.97612 | 31059 ft | 492 kts | 86° |
| 2026-05-07 20:04 | 21.37766 | -155.93991 | 31170 ft | 493 kts | 86° |
| 2026-05-07 20:05 | 21.37983 | -155.90274 | 31292 ft | 494 kts | 86° |
| 2026-05-07 20:05 | 21.38199 | -155.86580 | 31413 ft | 495 kts | 86° |
| 2026-05-07 20:05 | 21.38411 | -155.82938 | 31524 ft | 496 kts | 86° |
| 2026-05-07 20:05 | 21.38627 | -155.79217 | 31646 ft | 497 kts | 86° |
| 2026-05-07 20:06 | 21.39053 | -155.71841 | 31833 ft | 499 kts | 86° |
| 2026-05-07 20:06 | 21.39267 | -155.68111 | 31938 ft | 499 kts | 86° |
| 2026-05-07 20:06 | 21.39478 | -155.64409 | 32024 ft | 500 kts | 86° |
| 2026-05-07 20:07 | 21.39904 | -155.56917 | 32188 ft | 501 kts | 86° |
| 2026-05-07 20:07 | 21.40325 | -155.49461 | 32332 ft | 503 kts | 86° |
| 2026-05-07 20:08 | 21.40744 | -155.41989 | 32468 ft | 504 kts | 86° |
| 2026-05-07 20:08 | 21.41163 | -155.34454 | 32591 ft | 505 kts | 87° |
| 2026-05-07 20:09 | 21.41577 | -155.26941 | 32716 ft | 506 kts | 87° |
| 2026-05-07 20:10 | 21.42195 | -155.15631 | 32819 ft | 508 kts | 87° |
| 2026-05-07 20:10 | 21.43126 | -155.08087 | 32896 ft | 509 kts | 81° |
| 2026-05-07 20:11 | 21.44274 | -155.00539 | 33005 ft | 509 kts | 81° |
| 2026-05-07 20:11 | 21.45594 | -154.91812 | 33087 ft | 509 kts | 81° |
| 2026-05-07 20:12 | 21.46537 | -154.85547 | 33118 ft | 510 kts | 81° |
| 2026-05-07 20:12 | 21.47668 | -154.78009 | 33116 ft | 511 kts | 81° |
| 2026-05-07 20:13 | 21.48610 | -154.71710 | 33121 ft | 512 kts | 81° |
| 2026-05-07 20:13 | 21.49941 | -154.62775 | 33123 ft | 512 kts | 81° |
| 2026-05-07 20:14 | 21.51078 | -154.55112 | 33118 ft | 513 kts | 81° |
| 2026-05-07 20:14 | 21.52201 | -154.47516 | 33117 ft | 512 kts | 81° |
| 2026-05-07 20:15 | 21.53327 | -154.39871 | 33117 ft | 512 kts | 81° |
| 2026-05-07 20:15 | 21.54438 | -154.32309 | 33119 ft | 512 kts | 81° |
| 2026-05-07 20:16 | 21.55549 | -154.24718 | 33116 ft | 512 kts | 81° |
| 2026-05-07 20:16 | 21.56659 | -154.17111 | 33117 ft | 512 kts | 81° |
| 2026-05-07 20:17 | 21.57765 | -154.09509 | 33111 ft | 512 kts | 81° |
| 2026-05-07 20:17 | 21.58875 | -154.01848 | 33113 ft | 512 kts | 81° |
| 2026-05-07 20:18 | 21.59969 | -153.94281 | 33110 ft | 512 kts | 81° |
| 2026-05-07 20:18 | 21.61064 | -153.86679 | 33112 ft | 512 kts | 81° |
| 2026-05-07 20:19 | 21.62149 | -153.79118 | 33111 ft | 512 kts | 81° |
| 2026-05-07 20:19 | 21.63226 | -153.71596 | 33110 ft | 511 kts | 81° |
| 2026-05-07 20:20 | 21.64306 | -153.64023 | 33109 ft | 511 kts | 81° |
| 2026-05-07 20:20 | 21.65379 | -153.56474 | 33111 ft | 512 kts | 81° |
| 2026-05-07 20:21 | 21.66446 | -153.48947 | 33111 ft | 512 kts | 81° |
| 2026-05-07 20:21 | 21.67519 | -153.41350 | 33109 ft | 512 kts | 81° |
| 2026-05-07 20:22 | 21.68577 | -153.33833 | 33108 ft | 511 kts | 82° |
| 2026-05-07 20:22 | 21.69638 | -153.26273 | 33110 ft | 510 kts | 82° |
| 2026-05-07 20:23 | 21.70762 | -153.18738 | 33114 ft | 510 kts | 78° |
| 2026-05-07 20:23 | 21.73012 | -153.11534 | 33115 ft | 509 kts | 64° |
| 2026-05-07 20:24 | 21.76316 | -153.04834 | 33115 ft | 509 kts | 61° |
| 2026-05-07 20:24 | 21.79688 | -152.98125 | 33115 ft | 510 kts | 61° |
| 2026-05-07 20:25 | 21.83064 | -152.91406 | 33112 ft | 510 kts | 61° |
| 2026-05-07 20:25 | 21.86435 | -152.84697 | 33112 ft | 510 kts | 61° |
| 2026-05-07 20:26 | 21.89813 | -152.77966 | 33111 ft | 510 kts | 61° |
| 2026-05-07 20:26 | 21.93184 | -152.71248 | 33114 ft | 509 kts | 61° |
| 2026-05-07 20:27 | 21.96534 | -152.64563 | 33115 ft | 509 kts | 61° |
| 2026-05-07 20:27 | 21.99894 | -152.57852 | 33112 ft | 509 kts | 61° |
| 2026-05-07 20:28 | 22.03243 | -152.51157 | 33115 ft | 509 kts | 61° |
| 2026-05-07 20:28 | 22.06599 | -152.44440 | 33114 ft | 509 kts | 61° |
| 2026-05-07 20:29 | 22.09952 | -152.37720 | 33117 ft | 509 kts | 61° |
| 2026-05-07 20:29 | 22.13310 | -152.30981 | 33114 ft | 510 kts | 62° |
| 2026-05-07 20:30 | 22.16646 | -152.24278 | 33114 ft | 509 kts | 62° |
| 2026-05-07 20:30 | 22.20007 | -152.17519 | 33115 ft | 508 kts | 62° |
| 2026-05-07 20:31 | 22.23342 | -152.10803 | 33117 ft | 508 kts | 62° |
| 2026-05-07 20:31 | 22.26655 | -152.04121 | 33119 ft | 508 kts | 62° |
| 2026-05-07 20:32 | 22.29995 | -151.97378 | 33121 ft | 508 kts | 62° |
| 2026-05-07 20:32 | 22.33313 | -151.90669 | 33119 ft | 508 kts | 62° |
| 2026-05-07 20:33 | 22.36633 | -151.83922 | 33123 ft | 508 kts | 62° |
| 2026-05-07 20:33 | 22.39967 | -151.77124 | 33119 ft | 509 kts | 62° |
| 2026-05-07 20:34 | 22.43293 | -151.70332 | 33121 ft | 508 kts | 62° |
| 2026-05-07 20:34 | 22.46599 | -151.63574 | 33124 ft | 508 kts | 62° |
| 2026-05-07 20:35 | 22.49905 | -151.56804 | 33123 ft | 508 kts | 62° |
| 2026-05-07 20:35 | 22.53186 | -151.50079 | 33124 ft | 508 kts | 62° |
| 2026-05-07 20:36 | 22.56483 | -151.43311 | 33124 ft | 508 kts | 62° |
| 2026-05-07 20:36 | 22.59765 | -151.36563 | 33125 ft | 508 kts | 62° |
| 2026-05-07 20:37 | 22.63067 | -151.29767 | 33127 ft | 508 kts | 63° |
| 2026-05-07 20:37 | 22.66330 | -151.23042 | 33127 ft | 508 kts | 63° |
| 2026-05-07 20:38 | 22.69631 | -151.16231 | 33128 ft | 508 kts | 63° |
| 2026-05-07 20:38 | 22.72895 | -151.09485 | 33125 ft | 508 kts | 63° |
| 2026-05-07 20:39 | 22.76180 | -151.02686 | 33126 ft | 508 kts | 63° |
| 2026-05-07 20:39 | 22.79435 | -150.95941 | 33129 ft | 507 kts | 63° |
| 2026-05-07 20:40 | 22.82695 | -150.89177 | 33132 ft | 506 kts | 63° |
| 2026-05-07 20:40 | 22.85968 | -150.82376 | 33131 ft | 506 kts | 63° |
| 2026-05-07 20:41 | 22.89239 | -150.75568 | 33132 ft | 506 kts | 63° |
| 2026-05-07 20:41 | 22.92471 | -150.68834 | 33134 ft | 507 kts | 63° |
| 2026-05-07 20:42 | 22.95729 | -150.62036 | 33134 ft | 507 kts | 63° |
| 2026-05-07 20:42 | 22.99002 | -150.55199 | 33135 ft | 507 kts | 63° |
| 2026-05-07 20:43 | 23.02282 | -150.48334 | 33135 ft | 507 kts | 63° |
| 2026-05-07 20:43 | 23.05533 | -150.41522 | 33133 ft | 506 kts | 63° |
| 2026-05-07 20:44 | 23.08778 | -150.34714 | 33134 ft | 505 kts | 63° |
| 2026-05-07 20:44 | 23.11995 | -150.27954 | 33135 ft | 505 kts | 63° |
| 2026-05-07 20:45 | 23.15221 | -150.21166 | 33135 ft | 506 kts | 63° |
| 2026-05-07 20:45 | 23.18450 | -150.14360 | 33134 ft | 506 kts | 63° |
| 2026-05-07 20:46 | 23.21692 | -150.07520 | 33135 ft | 506 kts | 63° |
| 2026-05-07 20:46 | 23.24912 | -150.00714 | 33134 ft | 506 kts | 63° |
| 2026-05-07 20:47 | 23.28127 | -149.93913 | 33134 ft | 506 kts | 63° |
| 2026-05-07 20:47 | 23.31325 | -149.87135 | 33135 ft | 505 kts | 63° |
| 2026-05-07 20:48 | 23.34538 | -149.80318 | 33135 ft | 505 kts | 63° |
| 2026-05-07 20:48 | 23.37743 | -149.73505 | 33138 ft | 505 kts | 63° |
| 2026-05-07 20:49 | 23.40950 | -149.66679 | 33138 ft | 505 kts | 63° |
| 2026-05-07 20:49 | 23.44132 | -149.59897 | 33134 ft | 505 kts | 63° |
| 2026-05-07 20:50 | 23.47330 | -149.53072 | 33133 ft | 505 kts | 63° |
| 2026-05-07 20:50 | 23.50528 | -149.46237 | 33145 ft | 505 kts | 63° |
| 2026-05-07 20:51 | 23.53718 | -149.39409 | 33140 ft | 505 kts | 63° |
| 2026-05-07 20:51 | 23.56885 | -149.32619 | 33145 ft | 504 kts | 63° |
| 2026-05-07 20:52 | 23.60060 | -149.25801 | 33143 ft | 504 kts | 63° |
| 2026-05-07 20:52 | 23.63248 | -149.18948 | 33143 ft | 504 kts | 63° |
| 2026-05-07 20:53 | 23.66418 | -149.12123 | 33142 ft | 505 kts | 63° |
| 2026-05-07 20:53 | 23.69422 | -149.05644 | 33143 ft | 505 kts | 63° |
| 2026-05-07 20:54 | 23.72599 | -148.98785 | 33148 ft | 504 kts | 63° |
| 2026-05-07 20:54 | 23.75759 | -148.91951 | 33150 ft | 504 kts | 63° |
| 2026-05-07 20:55 | 23.78907 | -148.85135 | 33156 ft | 504 kts | 63° |
| 2026-05-07 20:55 | 23.82070 | -148.78273 | 33154 ft | 504 kts | 63° |
| 2026-05-07 20:56 | 23.85229 | -148.71411 | 33155 ft | 505 kts | 63° |
| 2026-05-07 20:56 | 23.88381 | -148.64557 | 33153 ft | 505 kts | 63° |
| 2026-05-07 20:57 | 23.91543 | -148.57669 | 33154 ft | 505 kts | 63° |
| 2026-05-07 20:57 | 23.94697 | -148.50787 | 33155 ft | 505 kts | 63° |
| 2026-05-07 20:58 | 23.97843 | -148.43913 | 33156 ft | 504 kts | 63° |
| 2026-05-07 20:58 | 24.00975 | -148.37059 | 33156 ft | 504 kts | 63° |
| 2026-05-07 20:59 | 24.04114 | -148.30179 | 33157 ft | 503 kts | 64° |
| 2026-05-07 20:59 | 24.07249 | -148.23299 | 33157 ft | 504 kts | 64° |
| 2026-05-07 21:00 | 24.10371 | -148.16437 | 33156 ft | 505 kts | 64° |
| 2026-05-07 21:00 | 24.13487 | -148.09576 | 33154 ft | 505 kts | 64° |
| 2026-05-07 21:01 | 24.16613 | -148.02686 | 33155 ft | 505 kts | 64° |
| 2026-05-07 21:01 | 24.19734 | -147.95795 | 33156 ft | 504 kts | 64° |
| 2026-05-07 21:02 | 24.22847 | -147.88910 | 33159 ft | 503 kts | 64° |
| 2026-05-07 21:02 | 24.25983 | -147.81966 | 33157 ft | 504 kts | 64° |
| 2026-05-07 21:03 | 24.29106 | -147.75038 | 33154 ft | 505 kts | 64° |
| 2026-05-07 21:03 | 24.32214 | -147.68133 | 33157 ft | 506 kts | 64° |
| 2026-05-07 21:04 | 24.35313 | -147.61240 | 33157 ft | 506 kts | 64° |
| 2026-05-07 21:04 | 24.38426 | -147.54303 | 33154 ft | 506 kts | 64° |
| 2026-05-07 21:05 | 24.41521 | -147.47398 | 33162 ft | 506 kts | 64° |
| 2026-05-07 21:05 | 24.44630 | -147.40448 | 33161 ft | 506 kts | 64° |
| 2026-05-07 21:06 | 24.47718 | -147.33536 | 33162 ft | 506 kts | 64° |
| 2026-05-07 21:06 | 24.50818 | -147.26585 | 33165 ft | 506 kts | 64° |
| 2026-05-07 21:07 | 24.53903 | -147.19659 | 33165 ft | 506 kts | 64° |
| 2026-05-07 21:07 | 24.57004 | -147.12686 | 33151 ft | 506 kts | 64° |
| 2026-05-07 21:08 | 24.60102 | -147.05710 | 33141 ft | 505 kts | 64° |
| 2026-05-07 21:08 | 24.63200 | -146.98720 | 33148 ft | 505 kts | 64° |
| 2026-05-07 21:09 | 24.66302 | -146.91713 | 33146 ft | 505 kts | 64° |
| 2026-05-07 21:09 | 24.69378 | -146.84752 | 33150 ft | 506 kts | 64° |
| 2026-05-07 21:10 | 24.72443 | -146.77806 | 33149 ft | 506 kts | 64° |
| 2026-05-07 21:10 | 24.75523 | -146.70816 | 33148 ft | 506 kts | 64° |
| 2026-05-07 21:11 | 24.78595 | -146.63831 | 33156 ft | 506 kts | 64° |
| 2026-05-07 21:11 | 24.83196 | -146.53352 | 33153 ft | 507 kts | 64° |
| 2026-05-07 21:12 | 24.86256 | -146.46370 | 33158 ft | 507 kts | 64° |
| 2026-05-07 21:12 | 24.89326 | -146.39352 | 33156 ft | 508 kts | 64° |
| 2026-05-07 21:13 | 24.92388 | -146.32341 | 33157 ft | 508 kts | 64° |
| 2026-05-07 21:13 | 24.95448 | -146.25325 | 33156 ft | 508 kts | 64° |
| 2026-05-07 21:14 | 24.98520 | -146.18272 | 33168 ft | 508 kts | 64° |
| 2026-05-07 21:14 | 25.01556 | -146.11290 | 33176 ft | 508 kts | 64° |
| 2026-05-07 21:15 | 25.04631 | -146.04205 | 33174 ft | 509 kts | 64° |
| 2026-05-07 21:15 | 25.07670 | -145.97192 | 33177 ft | 509 kts | 64° |
| 2026-05-07 21:16 | 25.10730 | -145.90123 | 33175 ft | 510 kts | 64° |
| 2026-05-07 21:16 | 25.13780 | -145.83063 | 33173 ft | 510 kts | 64° |
| 2026-05-07 21:17 | 25.16844 | -145.75958 | 33175 ft | 509 kts | 64° |
| 2026-05-07 21:17 | 25.19891 | -145.68884 | 33176 ft | 509 kts | 64° |
| 2026-05-07 21:18 | 25.22924 | -145.61830 | 33177 ft | 508 kts | 64° |
| 2026-05-07 21:18 | 25.25958 | -145.54762 | 33175 ft | 508 kts | 64° |
| 2026-05-07 21:19 | 25.28994 | -145.47676 | 33174 ft | 508 kts | 64° |
| 2026-05-07 21:19 | 25.32008 | -145.40625 | 33180 ft | 508 kts | 64° |
| 2026-05-07 21:20 | 25.35035 | -145.33536 | 33176 ft | 508 kts | 64° |
| 2026-05-07 21:20 | 25.38040 | -145.26483 | 33176 ft | 508 kts | 64° |
| 2026-05-07 21:21 | 25.41066 | -145.19371 | 33175 ft | 508 kts | 64° |
| 2026-05-07 21:21 | 25.44070 | -145.12300 | 33175 ft | 507 kts | 64° |
| 2026-05-07 21:22 | 25.47052 | -145.05269 | 33178 ft | 507 kts | 64° |
| 2026-05-07 21:22 | 25.50062 | -144.98161 | 33174 ft | 507 kts | 64° |
| 2026-05-07 21:23 | 25.53046 | -144.91101 | 33175 ft | 507 kts | 64° |
| 2026-05-07 21:23 | 25.56039 | -144.84010 | 33175 ft | 508 kts | 64° |
| 2026-05-07 21:24 | 25.59030 | -144.76914 | 33176 ft | 508 kts | 64° |
| 2026-05-07 21:24 | 25.62036 | -144.69768 | 33175 ft | 508 kts | 64° |
| 2026-05-07 21:25 | 25.65013 | -144.62679 | 33176 ft | 508 kts | 64° |
| 2026-05-07 21:25 | 25.68012 | -144.55528 | 33175 ft | 508 kts | 64° |
| 2026-05-07 21:26 | 25.70993 | -144.48408 | 33176 ft | 508 kts | 64° |
| 2026-05-07 21:26 | 25.73969 | -144.41287 | 33175 ft | 509 kts | 64° |
| 2026-05-07 21:27 | 25.76947 | -144.34151 | 33176 ft | 509 kts | 65° |
| 2026-05-07 21:27 | 25.79911 | -144.27035 | 33176 ft | 508 kts | 64° |
| 2026-05-07 21:28 | 25.82889 | -144.19875 | 33175 ft | 508 kts | 64° |
| 2026-05-07 21:28 | 25.85849 | -144.12746 | 33176 ft | 509 kts | 65° |
| 2026-05-07 21:29 | 25.88806 | -144.05614 | 33177 ft | 509 kts | 64° |
| 2026-05-07 21:29 | 25.91774 | -143.98441 | 33176 ft | 511 kts | 64° |
| 2026-05-07 21:30 | 25.94728 | -143.91292 | 33175 ft | 511 kts | 64° |
| 2026-05-07 21:30 | 25.97692 | -143.84103 | 33175 ft | 510 kts | 64° |
| 2026-05-07 21:31 | 26.00652 | -143.76916 | 33178 ft | 510 kts | 64° |
| 2026-05-07 21:31 | 26.03600 | -143.69746 | 33175 ft | 511 kts | 65° |
| 2026-05-07 21:32 | 26.06551 | -143.62556 | 33175 ft | 511 kts | 65° |
| 2026-05-07 21:32 | 26.09506 | -143.55344 | 33177 ft | 511 kts | 65° |
| 2026-05-07 21:33 | 26.12464 | -143.48114 | 33179 ft | 512 kts | 64° |
| 2026-05-07 21:33 | 26.15427 | -143.40857 | 33177 ft | 513 kts | 64° |
| 2026-05-07 21:34 | 26.18380 | -143.33614 | 33177 ft | 513 kts | 65° |
| 2026-05-07 21:34 | 26.21326 | -143.26375 | 33178 ft | 513 kts | 65° |
| 2026-05-07 21:35 | 26.24278 | -143.19107 | 33179 ft | 513 kts | 65° |
| 2026-05-07 21:35 | 26.27222 | -143.11847 | 33181 ft | 513 kts | 65° |
| 2026-05-07 21:36 | 26.30168 | -143.04572 | 33183 ft | 513 kts | 65° |
| 2026-05-07 21:36 | 26.33125 | -142.97257 | 33186 ft | 514 kts | 65° |
| 2026-05-07 21:37 | 26.36050 | -142.90007 | 33184 ft | 513 kts | 65° |
| 2026-05-07 21:37 | 26.38979 | -142.82736 | 33182 ft | 514 kts | 65° |
| 2026-05-07 21:38 | 26.41911 | -142.75444 | 33180 ft | 514 kts | 65° |
| 2026-05-07 21:38 | 26.44855 | -142.68109 | 33183 ft | 514 kts | 65° |
| 2026-05-07 21:39 | 26.47783 | -142.60802 | 33184 ft | 514 kts | 65° |
| 2026-05-07 21:39 | 26.50717 | -142.53468 | 33184 ft | 514 kts | 65° |
| 2026-05-07 21:40 | 26.53628 | -142.46178 | 33184 ft | 514 kts | 65° |
| 2026-05-07 21:40 | 26.56531 | -142.38896 | 33184 ft | 514 kts | 65° |
| 2026-05-07 21:41 | 26.59452 | -142.31554 | 33186 ft | 514 kts | 65° |
| 2026-05-07 21:41 | 26.62362 | -142.24229 | 33185 ft | 514 kts | 65° |
| 2026-05-07 21:42 | 26.65262 | -142.16914 | 33186 ft | 514 kts | 65° |
| 2026-05-07 21:42 | 26.68167 | -142.09576 | 33188 ft | 515 kts | 65° |
| 2026-05-07 21:43 | 26.71065 | -142.02241 | 33189 ft | 515 kts | 65° |
| 2026-05-07 21:43 | 26.73964 | -141.94887 | 33191 ft | 514 kts | 65° |
| 2026-05-07 21:44 | 26.76857 | -141.87540 | 33192 ft | 515 kts | 65° |
| 2026-05-07 21:44 | 26.79738 | -141.80208 | 33191 ft | 515 kts | 65° |
| 2026-05-07 21:45 | 26.82640 | -141.72810 | 33195 ft | 516 kts | 65° |
| 2026-05-07 21:45 | 26.85533 | -141.65424 | 33195 ft | 516 kts | 65° |
| 2026-05-07 21:46 | 26.88418 | -141.58040 | 33197 ft | 516 kts | 65° |
| 2026-05-07 21:46 | 26.91295 | -141.50667 | 33197 ft | 516 kts | 65° |
| 2026-05-07 21:47 | 26.94165 | -141.43295 | 33196 ft | 516 kts | 65° |
| 2026-05-07 21:47 | 26.97043 | -141.35892 | 33195 ft | 516 kts | 65° |
| 2026-05-07 21:48 | 26.99904 | -141.28519 | 33200 ft | 516 kts | 65° |
| 2026-05-07 21:48 | 27.02775 | -141.21104 | 33196 ft | 517 kts | 66° |
| 2026-05-07 21:49 | 27.05638 | -141.13698 | 33191 ft | 517 kts | 66° |
| 2026-05-07 21:49 | 27.08503 | -141.06273 | 33190 ft | 517 kts | 66° |
| 2026-05-07 21:50 | 27.11372 | -140.98822 | 33194 ft | 517 kts | 66° |
| 2026-05-07 21:50 | 27.14232 | -140.91383 | 33194 ft | 516 kts | 65° |
| 2026-05-07 21:51 | 27.17083 | -140.83951 | 33197 ft | 516 kts | 66° |
| 2026-05-07 21:51 | 27.19934 | -140.76506 | 33195 ft | 517 kts | 66° |
| 2026-05-07 21:52 | 27.22779 | -140.69064 | 33196 ft | 517 kts | 66° |
| 2026-05-07 21:52 | 27.25617 | -140.61626 | 33192 ft | 517 kts | 66° |
| 2026-05-07 21:53 | 27.28446 | -140.54196 | 33194 ft | 517 kts | 66° |
| 2026-05-07 21:53 | 27.31281 | -140.46738 | 33199 ft | 518 kts | 66° |
| 2026-05-07 21:54 | 27.34137 | -140.39208 | 33193 ft | 518 kts | 65° |
| 2026-05-07 21:54 | 27.36965 | -140.31740 | 33192 ft | 518 kts | 66° |
| 2026-05-07 21:55 | 27.39788 | -140.24269 | 33190 ft | 518 kts | 66° |
| 2026-05-07 21:55 | 27.42610 | -140.16786 | 33197 ft | 518 kts | 66° |
| 2026-05-07 21:56 | 27.45427 | -140.09303 | 33203 ft | 517 kts | 66° |
| 2026-05-07 21:56 | 27.48245 | -140.01802 | 33207 ft | 517 kts | 66° |
| 2026-05-07 21:57 | 27.51046 | -139.94331 | 33204 ft | 518 kts | 66° |
| 2026-05-07 21:57 | 27.53852 | -139.86833 | 33210 ft | 517 kts | 66° |
| 2026-05-07 21:58 | 27.56649 | -139.79346 | 33212 ft | 518 kts | 66° |
| 2026-05-07 21:58 | 27.59433 | -139.71876 | 33211 ft | 518 kts | 66° |
| 2026-05-07 21:59 | 27.62229 | -139.64363 | 33211 ft | 518 kts | 66° |
| 2026-05-07 21:59 | 27.65017 | -139.56853 | 33211 ft | 518 kts | 66° |
| 2026-05-07 22:00 | 27.67805 | -139.49330 | 33210 ft | 518 kts | 66° |
| 2026-05-07 22:00 | 27.70578 | -139.41832 | 33213 ft | 517 kts | 66° |
| 2026-05-07 22:01 | 27.73360 | -139.34296 | 33216 ft | 517 kts | 67° |
| 2026-05-07 22:01 | 27.76120 | -139.26805 | 33218 ft | 517 kts | 66° |
| 2026-05-07 22:02 | 27.78888 | -139.19278 | 33218 ft | 517 kts | 67° |
| 2026-05-07 22:02 | 27.81666 | -139.11706 | 33218 ft | 518 kts | 67° |
| 2026-05-07 22:03 | 27.84415 | -139.04201 | 33217 ft | 518 kts | 67° |
| 2026-05-07 22:03 | 27.87187 | -138.96614 | 33218 ft | 519 kts | 67° |
| 2026-05-07 22:04 | 27.89937 | -138.89073 | 33215 ft | 518 kts | 67° |
| 2026-05-07 22:04 | 27.92685 | -138.81519 | 33214 ft | 518 kts | 67° |
| 2026-05-07 22:05 | 27.95430 | -138.73953 | 33215 ft | 518 kts | 67° |
| 2026-05-07 22:05 | 27.98156 | -138.66428 | 33216 ft | 518 kts | 67° |
| 2026-05-07 22:06 | 28.00883 | -138.58881 | 33212 ft | 518 kts | 67° |
| 2026-05-07 22:06 | 28.03627 | -138.51273 | 33214 ft | 518 kts | 67° |
| 2026-05-07 22:07 | 28.06362 | -138.43674 | 33220 ft | 518 kts | 67° |
| 2026-05-07 22:07 | 28.09084 | -138.36093 | 33218 ft | 518 kts | 67° |
| 2026-05-07 22:08 | 28.11793 | -138.28536 | 33216 ft | 518 kts | 67° |
| 2026-05-07 22:08 | 28.14502 | -138.20960 | 33220 ft | 518 kts | 67° |
| 2026-05-07 22:09 | 28.17204 | -138.13390 | 33219 ft | 517 kts | 67° |
| 2026-05-07 22:09 | 28.19901 | -138.05818 | 33215 ft | 517 kts | 67° |
| 2026-05-07 22:10 | 28.22583 | -137.98273 | 33218 ft | 517 kts | 68° |
| 2026-05-07 22:10 | 28.25270 | -137.90694 | 33217 ft | 517 kts | 68° |
| 2026-05-07 22:11 | 28.27956 | -137.83109 | 33216 ft | 518 kts | 68° |
| 2026-05-07 22:11 | 28.30646 | -137.75490 | 33218 ft | 518 kts | 67° |
| 2026-05-07 22:12 | 28.33331 | -137.67871 | 33217 ft | 518 kts | 67° |
| 2026-05-07 22:12 | 28.36018 | -137.60233 | 33219 ft | 517 kts | 67° |
| 2026-05-07 22:13 | 28.38691 | -137.52615 | 33222 ft | 517 kts | 67° |
| 2026-05-07 22:13 | 28.41367 | -137.44975 | 33222 ft | 517 kts | 67° |
| 2026-05-07 22:14 | 28.44034 | -137.37341 | 33220 ft | 517 kts | 67° |
| 2026-05-07 22:14 | 28.46692 | -137.29719 | 33217 ft | 518 kts | 68° |
| 2026-05-07 22:15 | 28.49346 | -137.22093 | 33217 ft | 518 kts | 68° |
| 2026-05-07 22:15 | 28.52005 | -137.14436 | 33216 ft | 518 kts | 68° |
| 2026-05-07 22:16 | 28.54646 | -137.06813 | 33217 ft | 518 kts | 68° |
| 2026-05-07 22:16 | 28.57297 | -136.99146 | 33218 ft | 518 kts | 68° |
| 2026-05-07 22:17 | 28.59933 | -136.91502 | 33218 ft | 518 kts | 68° |
| 2026-05-07 22:17 | 28.62573 | -136.83835 | 33221 ft | 518 kts | 68° |
| 2026-05-07 22:18 | 28.66490 | -136.72426 | 33220 ft | 518 kts | 67° |
| 2026-05-07 22:19 | 28.69100 | -136.64803 | 33225 ft | 518 kts | 67° |
| 2026-05-07 22:19 | 28.71716 | -136.57144 | 33234 ft | 517 kts | 67° |
| 2026-05-07 22:20 | 28.74400 | -136.49269 | 33232 ft | 517 kts | 67° |
| 2026-05-07 22:20 | 28.76991 | -136.41653 | 33234 ft | 516 kts | 67° |
| 2026-05-07 22:21 | 28.79575 | -136.34039 | 33233 ft | 516 kts | 68° |
| 2026-05-07 22:21 | 28.82164 | -136.26393 | 33237 ft | 516 kts | 68° |
| 2026-05-07 22:22 | 28.84729 | -136.18802 | 33236 ft | 515 kts | 68° |
| 2026-05-07 22:22 | 28.87304 | -136.11166 | 33236 ft | 514 kts | 68° |
| 2026-05-07 22:23 | 28.89866 | -136.03551 | 33239 ft | 514 kts | 67° |
| 2026-05-07 22:23 | 28.92422 | -135.95937 | 33239 ft | 514 kts | 67° |
| 2026-05-07 22:24 | 28.94964 | -135.88347 | 33237 ft | 514 kts | 67° |
| 2026-05-07 22:24 | 28.97521 | -135.80696 | 33238 ft | 514 kts | 67° |
| 2026-05-07 22:25 | 29.00056 | -135.73097 | 33238 ft | 513 kts | 67° |
| 2026-05-07 22:25 | 29.02589 | -135.65485 | 33237 ft | 513 kts | 68° |
| 2026-05-07 22:26 | 29.05133 | -135.57822 | 33237 ft | 513 kts | 67° |
| 2026-05-07 22:26 | 29.07661 | -135.50192 | 33241 ft | 513 kts | 68° |
| 2026-05-07 22:27 | 29.10197 | -135.42519 | 33238 ft | 513 kts | 68° |
| 2026-05-07 22:27 | 29.12721 | -135.34866 | 33239 ft | 513 kts | 68° |
| 2026-05-07 22:28 | 29.15267 | -135.27130 | 33238 ft | 513 kts | 68° |
| 2026-05-07 22:28 | 29.17782 | -135.19469 | 33239 ft | 512 kts | 68° |
| 2026-05-07 22:29 | 29.20281 | -135.11838 | 33238 ft | 512 kts | 68° |
| 2026-05-07 22:29 | 29.22783 | -135.04184 | 33239 ft | 511 kts | 68° |
| 2026-05-07 22:30 | 29.25256 | -134.96602 | 33239 ft | 511 kts | 68° |
| 2026-05-07 22:30 | 29.27737 | -134.88977 | 33238 ft | 511 kts | 68° |
| 2026-05-07 22:31 | 29.30215 | -134.81343 | 33242 ft | 511 kts | 68° |
| 2026-05-07 22:31 | 29.32684 | -134.73724 | 33246 ft | 511 kts | 68° |
| 2026-05-07 22:32 | 29.35145 | -134.66110 | 33246 ft | 511 kts | 68° |
| 2026-05-07 22:32 | 29.37622 | -134.58429 | 33248 ft | 511 kts | 68° |
| 2026-05-07 22:33 | 29.40083 | -134.50781 | 33251 ft | 510 kts | 68° |
| 2026-05-07 22:33 | 29.42535 | -134.43144 | 33246 ft | 510 kts | 68° |
| 2026-05-07 22:34 | 29.44983 | -134.35501 | 33251 ft | 510 kts | 68° |
| 2026-05-07 22:34 | 29.47410 | -134.27908 | 33259 ft | 509 kts | 68° |
| 2026-05-07 22:35 | 29.49844 | -134.20276 | 33256 ft | 509 kts | 68° |
| 2026-05-07 22:35 | 29.52266 | -134.12665 | 33260 ft | 509 kts | 68° |
| 2026-05-07 22:36 | 29.54698 | -134.05002 | 33259 ft | 509 kts | 68° |
| 2026-05-07 22:36 | 29.57110 | -133.97389 | 33258 ft | 508 kts | 68° |
| 2026-05-07 22:37 | 29.59518 | -133.89769 | 33259 ft | 508 kts | 68° |
| 2026-05-07 22:37 | 29.61924 | -133.82138 | 33261 ft | 508 kts | 68° |
| 2026-05-07 22:38 | 29.64329 | -133.74493 | 33258 ft | 508 kts | 68° |
| 2026-05-07 22:38 | 29.66731 | -133.66840 | 33258 ft | 507 kts | 68° |
| 2026-05-07 22:39 | 29.69114 | -133.59229 | 33260 ft | 508 kts | 68° |
| 2026-05-07 22:39 | 29.71494 | -133.51616 | 33258 ft | 508 kts | 68° |
| 2026-05-07 22:40 | 29.73876 | -133.43973 | 33256 ft | 508 kts | 68° |
| 2026-05-07 22:40 | 29.76254 | -133.36327 | 33260 ft | 507 kts | 68° |
| 2026-05-07 22:41 | 29.78631 | -133.28667 | 33258 ft | 507 kts | 68° |
| 2026-05-07 22:41 | 29.80991 | -133.21042 | 33256 ft | 507 kts | 68° |
| 2026-05-07 22:42 | 29.83357 | -133.13384 | 33257 ft | 507 kts | 68° |
| 2026-05-07 22:42 | 29.85709 | -133.05749 | 33256 ft | 506 kts | 68° |
| 2026-05-07 22:43 | 29.88068 | -132.98076 | 33259 ft | 506 kts | 68° |
| 2026-05-07 22:43 | 29.90414 | -132.90428 | 33259 ft | 506 kts | 68° |
| 2026-05-07 22:44 | 29.92768 | -132.82735 | 33258 ft | 506 kts | 68° |
| 2026-05-07 22:44 | 29.95105 | -132.75078 | 33259 ft | 505 kts | 68° |
| 2026-05-07 22:45 | 29.97440 | -132.67410 | 33259 ft | 505 kts | 68° |
| 2026-05-07 22:45 | 29.99761 | -132.59772 | 33260 ft | 505 kts | 68° |
| 2026-05-07 22:46 | 30.02094 | -132.52075 | 33258 ft | 505 kts | 68° |
| 2026-05-07 22:46 | 30.04411 | -132.44414 | 33259 ft | 505 kts | 68° |
| 2026-05-07 22:47 | 30.06733 | -132.36716 | 33258 ft | 504 kts | 68° |
| 2026-05-07 22:47 | 30.09030 | -132.29085 | 33259 ft | 504 kts | 68° |
| 2026-05-07 22:48 | 30.11340 | -132.21393 | 33259 ft | 503 kts | 68° |
| 2026-05-07 22:48 | 30.13639 | -132.13718 | 33261 ft | 503 kts | 68° |
| 2026-05-07 22:49 | 30.15927 | -132.06061 | 33261 ft | 503 kts | 68° |
| 2026-05-07 22:49 | 30.18206 | -131.98416 | 33263 ft | 504 kts | 68° |
| 2026-05-07 22:50 | 30.20489 | -131.90739 | 33263 ft | 504 kts | 69° |
| 2026-05-07 22:50 | 30.22769 | -131.83058 | 33262 ft | 504 kts | 68° |
| 2026-05-07 22:51 | 30.25030 | -131.75418 | 33259 ft | 503 kts | 68° |
| 2026-05-07 22:51 | 30.27293 | -131.67755 | 33261 ft | 502 kts | 68° |
| 2026-05-07 22:52 | 30.29532 | -131.60155 | 33257 ft | 501 kts | 68° |
| 2026-05-07 22:52 | 30.31767 | -131.52547 | 33256 ft | 501 kts | 68° |
| 2026-05-07 22:53 | 30.34009 | -131.44896 | 33251 ft | 500 kts | 68° |
| 2026-05-07 22:53 | 30.36241 | -131.37260 | 33250 ft | 500 kts | 68° |
| 2026-05-07 22:54 | 30.38472 | -131.29610 | 33255 ft | 499 kts | 69° |
| 2026-05-07 22:54 | 30.40704 | -131.21938 | 33248 ft | 499 kts | 69° |
| 2026-05-07 22:55 | 30.42915 | -131.14319 | 33249 ft | 499 kts | 69° |
| 2026-05-07 22:55 | 30.45147 | -131.06606 | 33249 ft | 498 kts | 69° |
| 2026-05-07 22:56 | 30.47360 | -130.98943 | 33250 ft | 498 kts | 69° |
| 2026-05-07 22:56 | 30.49583 | -130.91228 | 33247 ft | 498 kts | 68° |
| 2026-05-07 22:57 | 30.51786 | -130.83560 | 33245 ft | 498 kts | 68° |
| 2026-05-07 22:57 | 30.53974 | -130.75931 | 33251 ft | 497 kts | 69° |
| 2026-05-07 22:58 | 30.56155 | -130.68300 | 33247 ft | 497 kts | 68° |
| 2026-05-07 22:58 | 30.58341 | -130.60640 | 33253 ft | 496 kts | 68° |
| 2026-05-07 22:59 | 30.60510 | -130.53017 | 33258 ft | 496 kts | 68° |
| 2026-05-07 22:59 | 30.62669 | -130.45410 | 33253 ft | 496 kts | 68° |
| 2026-05-07 23:00 | 30.64837 | -130.37753 | 33254 ft | 495 kts | 68° |
| 2026-05-07 23:00 | 30.66971 | -130.30199 | 33253 ft | 494 kts | 69° |
| 2026-05-07 23:01 | 30.69104 | -130.22627 | 33255 ft | 494 kts | 69° |
| 2026-05-07 23:01 | 30.71251 | -130.14992 | 33256 ft | 494 kts | 69° |
| 2026-05-07 23:02 | 30.73394 | -130.07347 | 33254 ft | 494 kts | 69° |
| 2026-05-07 23:02 | 30.75532 | -129.99704 | 33250 ft | 493 kts | 69° |
| 2026-05-07 23:03 | 30.77647 | -129.92122 | 33249 ft | 493 kts | 69° |
| 2026-05-07 23:03 | 30.79771 | -129.84489 | 33256 ft | 492 kts | 69° |
| 2026-05-07 23:04 | 30.81870 | -129.76927 | 33247 ft | 492 kts | 69° |
| 2026-05-07 23:04 | 30.83974 | -129.69328 | 33251 ft | 491 kts | 69° |
| 2026-05-07 23:05 | 30.86066 | -129.61754 | 33244 ft | 492 kts | 69° |
| 2026-05-07 23:05 | 30.88165 | -129.54134 | 33246 ft | 492 kts | 69° |
| 2026-05-07 23:06 | 30.90239 | -129.46590 | 33244 ft | 492 kts | 69° |
| 2026-05-07 23:06 | 30.92322 | -129.38989 | 33246 ft | 491 kts | 69° |
| 2026-05-07 23:07 | 30.94401 | -129.31386 | 33245 ft | 491 kts | 69° |
| 2026-05-07 23:07 | 30.96474 | -129.23785 | 33246 ft | 490 kts | 69° |
| 2026-05-07 23:08 | 30.98530 | -129.16223 | 33242 ft | 490 kts | 69° |
| 2026-05-07 23:08 | 31.00601 | -129.08592 | 33241 ft | 490 kts | 69° |
| 2026-05-07 23:09 | 31.02659 | -129.00987 | 33254 ft | 490 kts | 69° |
| 2026-05-07 23:09 | 31.04722 | -128.93344 | 33253 ft | 490 kts | 69° |
| 2026-05-07 23:10 | 31.06772 | -128.85727 | 33240 ft | 489 kts | 69° |
| 2026-05-07 23:10 | 31.08817 | -128.78110 | 33233 ft | 489 kts | 69° |
| 2026-05-07 23:11 | 31.10856 | -128.70497 | 33232 ft | 489 kts | 69° |
| 2026-05-07 23:11 | 31.12879 | -128.62923 | 33231 ft | 490 kts | 69° |
| 2026-05-07 23:12 | 31.14925 | -128.55243 | 33231 ft | 490 kts | 69° |
| 2026-05-07 23:12 | 31.16950 | -128.47623 | 33229 ft | 490 kts | 69° |
| 2026-05-07 23:13 | 31.18975 | -128.39981 | 33227 ft | 490 kts | 69° |
| 2026-05-07 23:13 | 31.20989 | -128.32358 | 33223 ft | 490 kts | 70° |
| 2026-05-07 23:14 | 31.23002 | -128.24724 | 33223 ft | 490 kts | 70° |
| 2026-05-07 23:14 | 31.25007 | -128.17094 | 33219 ft | 490 kts | 69° |
| 2026-05-07 23:15 | 31.27007 | -128.09467 | 33216 ft | 490 kts | 70° |
| 2026-05-07 23:15 | 31.29014 | -128.01791 | 33214 ft | 490 kts | 69° |
| 2026-05-07 23:16 | 31.30817 | -127.94884 | 33220 ft | 490 kts | 69° |
| 2026-05-07 23:16 | 31.32814 | -127.87206 | 33215 ft | 490 kts | 69° |
| 2026-05-07 23:17 | 31.34817 | -127.79486 | 33218 ft | 489 kts | 69° |
| 2026-05-07 23:17 | 31.36810 | -127.71777 | 33217 ft | 489 kts | 69° |
| 2026-05-07 23:18 | 31.38773 | -127.64168 | 33216 ft | 488 kts | 69° |
| 2026-05-07 23:18 | 31.40743 | -127.56511 | 33214 ft | 488 kts | 69° |
| 2026-05-07 23:19 | 31.42708 | -127.48852 | 33216 ft | 488 kts | 69° |
| 2026-05-07 23:19 | 31.44674 | -127.41173 | 33217 ft | 488 kts | 69° |
| 2026-05-07 23:20 | 31.46624 | -127.33531 | 33219 ft | 489 kts | 70° |
| 2026-05-07 23:20 | 31.48585 | -127.25824 | 33220 ft | 488 kts | 70° |
| 2026-05-07 23:21 | 31.50532 | -127.18150 | 33220 ft | 488 kts | 70° |
| 2026-05-07 23:21 | 31.52472 | -127.10484 | 33219 ft | 488 kts | 70° |
| 2026-05-07 23:22 | 31.54410 | -127.02805 | 33219 ft | 487 kts | 70° |
| 2026-05-07 23:22 | 31.56331 | -126.95171 | 33215 ft | 487 kts | 70° |
| 2026-05-07 23:23 | 31.58261 | -126.87481 | 33216 ft | 488 kts | 70° |
| 2026-05-07 23:23 | 31.60170 | -126.79849 | 33212 ft | 488 kts | 70° |
| 2026-05-07 23:24 | 31.62096 | -126.72133 | 33215 ft | 488 kts | 70° |
| 2026-05-07 23:24 | 31.64003 | -126.64469 | 33209 ft | 489 kts | 70° |
| 2026-05-07 23:25 | 31.65918 | -126.56751 | 33209 ft | 489 kts | 70° |
| 2026-05-07 23:25 | 31.67818 | -126.49069 | 33208 ft | 489 kts | 70° |
| 2026-05-07 23:26 | 31.69722 | -126.41354 | 33203 ft | 489 kts | 70° |
| 2026-05-07 23:26 | 31.71616 | -126.33653 | 33201 ft | 490 kts | 71° |
| 2026-05-07 23:27 | 31.74453 | -126.22079 | 33196 ft | 490 kts | 71° |
| 2026-05-07 23:27 | 31.76344 | -126.14337 | 33193 ft | 491 kts | 71° |
| 2026-05-07 23:28 | 31.78232 | -126.06583 | 33192 ft | 491 kts | 71° |
| 2026-05-07 23:28 | 31.80102 | -125.98882 | 33184 ft | 491 kts | 71° |
| 2026-05-07 23:29 | 31.81972 | -125.91155 | 33174 ft | 491 kts | 71° |
| 2026-05-07 23:29 | 31.83846 | -125.83392 | 33175 ft | 491 kts | 71° |
| 2026-05-07 23:30 | 31.85716 | -125.75620 | 33178 ft | 492 kts | 71° |
| 2026-05-07 23:30 | 31.87575 | -125.67874 | 33175 ft | 492 kts | 71° |
| 2026-05-07 23:31 | 31.89448 | -125.60046 | 33177 ft | 493 kts | 71° |
| 2026-05-07 23:31 | 31.91317 | -125.52213 | 33178 ft | 495 kts | 71° |
| 2026-05-07 23:32 | 31.93172 | -125.44411 | 33175 ft | 495 kts | 71° |
| 2026-05-07 23:32 | 31.95035 | -125.36553 | 33176 ft | 495 kts | 71° |
| 2026-05-07 23:33 | 31.96888 | -125.28715 | 33174 ft | 496 kts | 72° |
| 2026-05-07 23:33 | 31.98737 | -125.20866 | 33177 ft | 496 kts | 72° |
| 2026-05-07 23:34 | 32.00587 | -125.12991 | 33176 ft | 497 kts | 72° |
| 2026-05-07 23:34 | 32.02439 | -125.05085 | 33175 ft | 498 kts | 73° |
| 2026-05-07 23:35 | 32.04282 | -124.97189 | 33172 ft | 498 kts | 72° |
| 2026-05-07 23:35 | 32.06125 | -124.89272 | 33173 ft | 498 kts | 73° |
| 2026-05-07 23:36 | 32.07955 | -124.81385 | 33170 ft | 499 kts | 73° |
| 2026-05-07 23:36 | 32.09790 | -124.73453 | 33171 ft | 499 kts | 73° |
| 2026-05-07 23:37 | 32.11626 | -124.65490 | 33171 ft | 499 kts | 73° |
| 2026-05-07 23:37 | 32.13453 | -124.57542 | 33167 ft | 500 kts | 73° |
| 2026-05-07 23:38 | 32.15279 | -124.49575 | 33165 ft | 501 kts | 73° |
| 2026-05-07 23:38 | 32.17098 | -124.41611 | 33164 ft | 501 kts | 73° |
| 2026-05-07 23:39 | 32.18909 | -124.33659 | 33160 ft | 501 kts | 73° |
| 2026-05-07 23:39 | 32.20725 | -124.25658 | 33163 ft | 501 kts | 73° |
| 2026-05-07 23:40 | 32.22532 | -124.17667 | 33160 ft | 502 kts | 73° |
| 2026-05-07 23:40 | 32.24329 | -124.09687 | 33153 ft | 502 kts | 74° |
| 2026-05-07 23:41 | 32.26006 | -124.01701 | 33155 ft | 502 kts | 75° |
| 2026-05-07 23:41 | 32.27688 | -123.93607 | 33155 ft | 502 kts | 75° |
| 2026-05-07 23:42 | 32.29352 | -123.85580 | 33152 ft | 503 kts | 75° |
| 2026-05-07 23:42 | 32.31029 | -123.77459 | 33150 ft | 503 kts | 75° |
| 2026-05-07 23:43 | 32.32708 | -123.69305 | 33149 ft | 503 kts | 75° |
| 2026-05-07 23:43 | 32.34355 | -123.61277 | 33150 ft | 503 kts | 75° |
| 2026-05-07 23:44 | 32.36008 | -123.53194 | 33146 ft | 503 kts | 75° |
| 2026-05-07 23:44 | 32.37652 | -123.45129 | 33143 ft | 503 kts | 75° |
| 2026-05-07 23:45 | 32.39294 | -123.37041 | 33143 ft | 503 kts | 75° |
| 2026-05-07 23:45 | 32.40918 | -123.29018 | 33140 ft | 503 kts | 75° |
| 2026-05-07 23:46 | 32.42552 | -123.20916 | 33141 ft | 504 kts | 75° |
| 2026-05-07 23:46 | 32.44185 | -123.12793 | 33135 ft | 504 kts | 76° |
| 2026-05-07 23:47 | 32.45816 | -123.04647 | 33132 ft | 504 kts | 76° |
| 2026-05-07 23:47 | 32.47514 | -122.96555 | 33130 ft | 504 kts | 73° |
| 2026-05-07 23:48 | 32.49383 | -122.88523 | 33131 ft | 503 kts | 73° |
| 2026-05-07 23:48 | 32.51249 | -122.80473 | 33134 ft | 503 kts | 73° |
| 2026-05-07 23:49 | 32.53098 | -122.72457 | 33127 ft | 504 kts | 73° |
| 2026-05-07 23:49 | 32.54940 | -122.64444 | 33127 ft | 504 kts | 73° |
| 2026-05-07 23:50 | 32.56795 | -122.56340 | 33127 ft | 504 kts | 73° |
| 2026-05-07 23:50 | 32.58631 | -122.48292 | 33125 ft | 504 kts | 73° |
| 2026-05-07 23:51 | 32.60465 | -122.40228 | 33123 ft | 504 kts | 73° |
| 2026-05-07 23:51 | 32.62295 | -122.32147 | 33122 ft | 504 kts | 73° |
| 2026-05-07 23:52 | 32.64117 | -122.24076 | 33119 ft | 504 kts | 73° |
| 2026-05-07 23:52 | 32.65931 | -122.16016 | 33120 ft | 504 kts | 73° |
| 2026-05-07 23:53 | 32.67807 | -122.07949 | 33115 ft | 503 kts | 70° |
| 2026-05-07 23:53 | 32.70806 | -122.00384 | 33115 ft | 500 kts | 57° |
| 2026-05-07 23:54 | 32.74504 | -121.93315 | 33105 ft | 500 kts | 56° |
| 2026-05-07 23:54 | 32.78206 | -121.86224 | 33110 ft | 499 kts | 56° |
| 2026-05-07 23:55 | 32.81886 | -121.79155 | 33105 ft | 499 kts | 56° |
| 2026-05-07 23:55 | 32.85553 | -121.72096 | 33098 ft | 499 kts | 56° |
| 2026-05-07 23:56 | 32.89227 | -121.65005 | 33098 ft | 498 kts | 56° |
| 2026-05-07 23:56 | 32.92885 | -121.57930 | 33100 ft | 498 kts | 56° |
| 2026-05-07 23:57 | 32.96516 | -121.50892 | 33096 ft | 497 kts | 56° |
| 2026-05-07 23:57 | 33.00157 | -121.43821 | 33091 ft | 497 kts | 56° |
| 2026-05-07 23:58 | 33.03771 | -121.36787 | 33080 ft | 496 kts | 56° |
| 2026-05-07 23:58 | 33.07407 | -121.29697 | 33089 ft | 495 kts | 57° |
| 2026-05-07 23:59 | 33.10985 | -121.22707 | 33075 ft | 495 kts | 57° |
| 2026-05-07 23:59 | 33.14587 | -121.15654 | 33074 ft | 495 kts | 57° |
| 2026-05-08 00:00 | 33.18182 | -121.08603 | 33072 ft | 494 kts | 56° |
| 2026-05-08 00:00 | 33.21765 | -121.01561 | 33063 ft | 494 kts | 57° |
| 2026-05-08 00:01 | 33.25359 | -120.94485 | 33069 ft | 493 kts | 57° |
| 2026-05-08 00:01 | 33.28925 | -120.87450 | 33064 ft | 492 kts | 56° |
| 2026-05-08 00:02 | 33.32482 | -120.80418 | 33050 ft | 492 kts | 57° |
| 2026-05-08 00:02 | 33.36041 | -120.73369 | 33055 ft | 492 kts | 57° |
| 2026-05-08 00:03 | 33.39584 | -120.66338 | 33050 ft | 492 kts | 56° |
| 2026-05-08 00:03 | 33.43109 | -120.59328 | 33051 ft | 492 kts | 56° |
| 2026-05-08 00:04 | 33.46475 | -120.52624 | 33033 ft | 492 kts | 56° |
| 2026-05-08 00:04 | 33.50001 | -120.45586 | 33045 ft | 491 kts | 56° |
| 2026-05-08 00:05 | 33.53553 | -120.38487 | 32559 ft | 498 kts | 57° |
| 2026-05-08 00:05 | 33.55334 | -120.34920 | 31963 ft | 493 kts | 57° |
| 2026-05-08 00:05 | 33.57080 | -120.31419 | 31371 ft | 486 kts | 57° |
| 2026-05-08 00:06 | 33.58812 | -120.27943 | 30717 ft | 484 kts | 58° |
| 2026-05-08 00:06 | 33.60553 | -120.24447 | 30088 ft | 483 kts | 58° |
| 2026-05-08 00:06 | 33.62278 | -120.20977 | 29427 ft | 482 kts | 58° |
| 2026-05-08 00:06 | 33.64001 | -120.17512 | 28799 ft | 478 kts | 58° |
| 2026-05-08 00:07 | 33.65694 | -120.14100 | 28159 ft | 471 kts | 58° |
| 2026-05-08 00:07 | 33.67371 | -120.10719 | 27524 ft | 465 kts | 58° |
| 2026-05-08 00:07 | 33.69033 | -120.07365 | 26909 ft | 462 kts | 58° |
| 2026-05-08 00:07 | 33.70683 | -120.04032 | 26273 ft | 460 kts | 58° |
| 2026-05-08 00:08 | 33.72317 | -120.00729 | 25670 ft | 458 kts | 59° |
| 2026-05-08 00:08 | 33.73926 | -119.97473 | 25059 ft | 447 kts | 59° |
| 2026-05-08 00:08 | 33.75498 | -119.94289 | 24488 ft | 436 kts | 59° |
| 2026-05-08 00:08 | 33.77032 | -119.91180 | 23897 ft | 427 kts | 59° |
| 2026-05-08 00:09 | 33.78543 | -119.88113 | 23333 ft | 418 kts | 59° |
| 2026-05-08 00:09 | 33.80024 | -119.85107 | 22785 ft | 410 kts | 59° |
| 2026-05-08 00:09 | 33.81467 | -119.82174 | 22242 ft | 402 kts | 59° |
| 2026-05-08 00:09 | 33.82879 | -119.79304 | 21711 ft | 394 kts | 59° |
| 2026-05-08 00:10 | 33.84278 | -119.76455 | 21179 ft | 386 kts | 59° |
| 2026-05-08 00:10 | 33.85627 | -119.73708 | 20681 ft | 379 kts | 59° |
| 2026-05-08 00:10 | 33.86961 | -119.70987 | 20181 ft | 372 kts | 59° |
| 2026-05-08 00:10 | 33.88261 | -119.68336 | 19688 ft | 366 kts | 59° |
| 2026-05-08 00:11 | 33.89550 | -119.65704 | 19206 ft | 361 kts | 59° |
| 2026-05-08 00:11 | 33.90840 | -119.63082 | 18727 ft | 362 kts | 59° |
| 2026-05-08 00:11 | 33.92131 | -119.60461 | 18231 ft | 361 kts | 59° |
| 2026-05-08 00:11 | 33.93406 | -119.57869 | 17753 ft | 360 kts | 59° |
| 2026-05-08 00:12 | 33.94677 | -119.55285 | 17249 ft | 356 kts | 59° |
| 2026-05-08 00:12 | 33.95940 | -119.52712 | 16783 ft | 354 kts | 59° |
| 2026-05-08 00:12 | 33.97202 | -119.50143 | 16304 ft | 351 kts | 59° |
| 2026-05-08 00:12 | 33.98450 | -119.47598 | 15843 ft | 346 kts | 59° |
| 2026-05-08 00:13 | 33.99668 | -119.45113 | 15403 ft | 345 kts | 59° |
| 2026-05-08 00:13 | 34.00880 | -119.42641 | 14927 ft | 341 kts | 59° |
| 2026-05-08 00:13 | 34.02084 | -119.40183 | 14449 ft | 339 kts | 59° |
| 2026-05-08 00:13 | 34.03294 | -119.37709 | 14061 ft | 338 kts | 59° |
| 2026-05-08 00:14 | 34.04482 | -119.35278 | 13585 ft | 335 kts | 59° |
| 2026-05-08 00:14 | 34.05668 | -119.32851 | 13151 ft | 332 kts | 59° |
| 2026-05-08 00:14 | 34.06831 | -119.30473 | 12713 ft | 330 kts | 59° |
| 2026-05-08 00:14 | 34.07998 | -119.28083 | 12448 ft | 320 kts | 59° |
| 2026-05-08 00:15 | 34.09104 | -119.25820 | 12420 ft | 301 kts | 59° |
| 2026-05-08 00:15 | 34.10146 | -119.23684 | 12373 ft | 295 kts | 59° |
| 2026-05-08 00:15 | 34.11190 | -119.21545 | 12157 ft | 293 kts | 59° |
| 2026-05-08 00:15 | 34.12222 | -119.19429 | 12003 ft | 292 kts | 59° |
| 2026-05-08 00:16 | 34.13252 | -119.17315 | 11830 ft | 292 kts | 59° |
| 2026-05-08 00:16 | 34.14280 | -119.15205 | 11667 ft | 291 kts | 58° |
| 2026-05-08 00:16 | 34.15310 | -119.13090 | 11504 ft | 291 kts | 58° |
| 2026-05-08 00:16 | 34.16336 | -119.10980 | 11334 ft | 290 kts | 58° |
| 2026-05-08 00:17 | 34.17344 | -119.08850 | 11173 ft | 290 kts | 63° |
| 2026-05-08 00:17 | 34.17894 | -119.06512 | 10980 ft | 292 kts | 84° |
| 2026-05-08 00:17 | 34.17674 | -119.04082 | 10881 ft | 294 kts | 105° |
| 2026-05-08 00:17 | 34.16864 | -119.01793 | 10822 ft | 295 kts | 113° |
| 2026-05-08 00:18 | 34.15995 | -118.99576 | 10757 ft | 289 kts | 113° |
| 2026-05-08 00:18 | 34.15134 | -118.97368 | 10685 ft | 288 kts | 112° |
| 2026-05-08 00:18 | 34.14280 | -118.95177 | 10613 ft | 287 kts | 113° |
| 2026-05-08 00:18 | 34.13422 | -118.92979 | 10535 ft | 287 kts | 112° |
| 2026-05-08 00:19 | 34.12563 | -118.90779 | 10482 ft | 288 kts | 113° |
| 2026-05-08 00:19 | 34.11704 | -118.88584 | 10400 ft | 288 kts | 113° |
| 2026-05-08 00:19 | 34.10843 | -118.86383 | 10314 ft | 287 kts | 112° |
| 2026-05-08 00:19 | 34.09978 | -118.84177 | 10257 ft | 288 kts | 113° |
| 2026-05-08 00:20 | 34.09124 | -118.81996 | 10199 ft | 287 kts | 112° |
| 2026-05-08 00:20 | 34.08275 | -118.79834 | 10103 ft | 285 kts | 113° |
| 2026-05-08 00:20 | 34.07420 | -118.77657 | 10068 ft | 286 kts | 113° |
| 2026-05-08 00:20 | 34.06565 | -118.75478 | 9976 ft | 285 kts | 112° |
| 2026-05-08 00:21 | 34.05722 | -118.73330 | 9899 ft | 285 kts | 112° |
| 2026-05-08 00:21 | 34.04872 | -118.71159 | 9649 ft | 288 kts | 113° |
| 2026-05-08 00:21 | 34.04008 | -118.68954 | 9301 ft | 289 kts | 112° |
| 2026-05-08 00:21 | 34.03169 | -118.66751 | 9036 ft | 281 kts | 108° |
| 2026-05-08 00:22 | 34.02772 | -118.64507 | 8844 ft | 270 kts | 94° |
| 2026-05-08 00:22 | 34.02572 | -118.62260 | 8624 ft | 263 kts | 94° |
| 2026-05-08 00:22 | 34.02372 | -118.60101 | 8414 ft | 257 kts | 94° |
| 2026-05-08 00:22 | 34.02175 | -118.57994 | 8200 ft | 251 kts | 94° |
| 2026-05-08 00:23 | 34.01981 | -118.55923 | 8008 ft | 245 kts | 94° |
| 2026-05-08 00:23 | 34.01791 | -118.53887 | 7816 ft | 242 kts | 94° |
| 2026-05-08 00:23 | 34.01604 | -118.51872 | 7606 ft | 242 kts | 94° |
| 2026-05-08 00:23 | 34.01414 | -118.49832 | 7399 ft | 244 kts | 94° |
| 2026-05-08 00:24 | 34.01225 | -118.47802 | 7181 ft | 244 kts | 95° |
| 2026-05-08 00:24 | 34.01068 | -118.45766 | 6977 ft | 242 kts | 86° |
| 2026-05-08 00:24 | 34.01313 | -118.43793 | 6687 ft | 239 kts | 75° |
| 2026-05-08 00:24 | 34.01670 | -118.41804 | 6300 ft | 241 kts | 75° |
| 2026-05-08 00:25 | 34.02015 | -118.39829 | 6009 ft | 239 kts | 76° |
| 2026-05-08 00:25 | 34.02356 | -118.37866 | 5969 ft | 240 kts | 76° |
| 2026-05-08 00:25 | 34.02678 | -118.35949 | 5852 ft | 234 kts | 78° |
| 2026-05-08 00:25 | 34.02904 | -118.33975 | 5468 ft | 238 kts | 81° |
| 2026-05-08 00:26 | 34.03104 | -118.32022 | 5163 ft | 237 kts | 81° |
| 2026-05-08 00:26 | 34.03309 | -118.30035 | 4851 ft | 236 kts | 81° |
| 2026-05-08 00:26 | 34.03517 | -118.28093 | 4539 ft | 235 kts | 81° |
| 2026-05-08 00:26 | 34.03741 | -118.26144 | 4239 ft | 234 kts | 80° |
| 2026-05-08 00:27 | 34.03969 | -118.24199 | 3966 ft | 231 kts | 81° |
| 2026-05-08 00:27 | 34.04195 | -118.22279 | 3663 ft | 231 kts | 81° |
| 2026-05-08 00:27 | 34.04419 | -118.20364 | 3368 ft | 229 kts | 81° |
| 2026-05-08 00:27 | 34.04638 | -118.18469 | 3081 ft | 228 kts | 80° |
| 2026-05-08 00:28 | 34.04859 | -118.16595 | 2777 ft | 227 kts | 81° |
| 2026-05-08 00:28 | 34.05093 | -118.14699 | 2581 ft | 222 kts | 80° |
| 2026-05-08 00:28 | 34.05327 | -118.12846 | 2572 ft | 226 kts | 80° |
| 2026-05-08 00:28 | 34.05565 | -118.10957 | 2578 ft | 226 kts | 80° |
| 2026-05-08 00:29 | 34.05802 | -118.09078 | 2583 ft | 229 kts | 80° |
| 2026-05-08 00:29 | 34.06042 | -118.07173 | 2587 ft | 229 kts | 80° |
| 2026-05-08 00:29 | 34.06287 | -118.05257 | 2589 ft | 229 kts | 80° |
| 2026-05-08 00:29 | 34.06319 | -118.03362 | 2586 ft | 229 kts | 105° |
| 2026-05-08 00:30 | 34.05490 | -118.01753 | 2586 ft | 226 kts | 144° |
| 2026-05-08 00:30 | 34.04045 | -118.01096 | 2595 ft | 221 kts | 182° |
| 2026-05-08 00:30 | 34.02626 | -118.01626 | 2593 ft | 215 kts | 220° |
| 2026-05-08 00:30 | 34.01553 | -118.02905 | 2601 ft | 215 kts | 230° |
| 2026-05-08 00:31 | 34.00576 | -118.04260 | 2598 ft | 213 kts | 231° |
| 2026-05-08 00:31 | 33.99598 | -118.05625 | 2578 ft | 215 kts | 231° |
| 2026-05-08 00:31 | 33.98611 | -118.07011 | 2571 ft | 216 kts | 231° |
| 2026-05-08 00:31 | 33.97621 | -118.08397 | 2566 ft | 217 kts | 231° |
| 2026-05-08 00:32 | 33.96647 | -118.09769 | 2562 ft | 217 kts | 231° |
| 2026-05-08 00:32 | 33.95654 | -118.11161 | 2563 ft | 217 kts | 231° |
| 2026-05-08 00:32 | 33.94772 | -118.12635 | 2557 ft | 214 kts | 249° |
| 2026-05-08 00:32 | 33.94610 | -118.14375 | 2561 ft | 208 kts | 272° |
| 2026-05-08 00:33 | 33.94639 | -118.16039 | 2575 ft | 189 kts | 271° |
| 2026-05-08 00:33 | 33.94655 | -118.17588 | 2570 ft | 183 kts | 271° |
| 2026-05-08 00:33 | 33.94670 | -118.19121 | 2561 ft | 181 kts | 271° |
| 2026-05-08 00:33 | 33.94685 | -118.20628 | 2562 ft | 181 kts | 271° |
| 2026-05-08 00:34 | 33.94700 | -118.22159 | 2561 ft | 181 kts | 271° |
| 2026-05-08 00:34 | 33.94714 | -118.23667 | 2560 ft | 181 kts | 271° |
| 2026-05-08 00:34 | 33.94727 | -118.25185 | 2555 ft | 177 kts | 271° |
| 2026-05-08 00:34 | 33.94726 | -118.26591 | 2483 ft | 161 kts | 268° |
| 2026-05-08 00:35 | 33.94643 | -118.27881 | 2350 ft | 151 kts | 265° |
| 2026-05-08 00:35 | 33.94540 | -118.29147 | 2285 ft | 151 kts | 265° |
| 2026-05-08 00:35 | 33.94438 | -118.30387 | 2285 ft | 142 kts | 264° |
| 2026-05-08 00:35 | 33.94335 | -118.31542 | 2114 ft | 139 kts | 265° |
| 2026-05-08 00:36 | 33.94240 | -118.32664 | 1741 ft | 130 kts | 264° |
| 2026-05-08 00:36 | 33.94149 | -118.33710 | 1373 ft | 123 kts | 263° |
| 2026-05-08 00:36 | 33.94064 | -118.34702 | 1072 ft | 120 kts | 263° |
| 2026-05-08 00:36 | 33.93981 | -118.35694 | 783 ft | 120 kts | 263° |
| 2026-05-08 00:37 | 33.93895 | -118.36683 | 490 ft | 118 kts | 263° |
| 2026-05-08 00:37 | 33.93800 | -118.37667 | 255 ft | 117 kts | 262° |
| 2026-05-08 00:37 | 33.93703 | -118.38620 | 119 ft | 112 kts | 262° |
| 2026-05-08 00:38 | 33.93621 | -118.39837 | 113 ft | 38 kts | 285° |
| 2026-05-08 00:38 | 33.93656 | -118.39957 | 116 ft | 0 kts | 287° |
| 2026-05-08 00:42 | 33.93661 | -118.39978 | 116 ft | 8 kts | 283° |
| 2026-05-08 00:42 | 33.93660 | -118.40115 | 119 ft | 23 kts | 262° |
| 2026-05-08 00:42 | 33.93633 | -118.40367 | 120 ft | 37 kts | 264° |
| 2026-05-08 00:42 | 33.93607 | -118.40640 | 125 ft | 24 kts | 264° |
| 2026-05-08 00:43 | 33.93583 | -118.40732 | 124 ft | 0 kts | 213° |
| 2026-05-08 00:46 | 33.93568 | -118.40740 | 124 ft | 7 kts | 195° |
| 2026-05-08 00:46 | 33.93470 | -118.40730 | 124 ft | 21 kts | 176° |
| 2026-05-08 00:46 | 33.93369 | -118.40655 | 123 ft | 19 kts | 90° |
| 2026-05-08 00:47 | 33.93387 | -118.40477 | 121 ft | 23 kts | 84° |
| 2026-05-08 00:47 | 33.93410 | -118.40269 | 120 ft | 26 kts | 84° |
| 2026-05-08 00:47 | 33.93362 | -118.40141 | 119 ft | 13 kts | 185° |
| 2026-05-08 00:47 | 33.93320 | -118.40143 | 119 ft | 0 kts | 172° |